Time;durP1;ratioP1;P1;durP2;ratioP2;P2;SDS_P1;SDS_P2;PMS_P1;PMS_P2;Temp;Humidity;BMP_temperature;BMP_pressure;BME280_temperature;BME280_humidity;BME280_pressure;Samples;Min_cycle;Max_cycle;Signal;HPM_P1;HPM_P2
2022/11/13 00:02:02;;;;;;;4.25;3.10;;;15.00;65.80;;;;;;5031231;28;20132;-72
2022/11/13 00:04:29;;;;;;;3.60;3.10;;;15.10;65.90;;;;;;5031888;28;20132;-72
2022/11/13 00:06:56;;;;;;;3.80;3.10;;;15.00;65.80;;;;;;5032629;28;20429;-72
2022/11/13 00:09:24;;;;;;;5.45;3.60;;;15.00;65.90;;;;;;5031704;28;20063;-72
2022/11/13 00:11:50;;;;;;;3.65;3.20;;;15.00;65.90;;;;;;5031127;28;20495;-72
2022/11/13 00:14:17;;;;;;;3.50;2.75;;;15.00;65.90;;;;;;5031424;28;20063;-72
2022/11/13 00:16:44;;;;;;;3.60;2.83;;;15.00;65.90;;;;;;5031423;28;20132;-72
2022/11/13 00:19:10;;;;;;;4.25;3.30;;;15.00;65.90;;;;;;5031711;28;20060;-72
2022/11/13 00:21:37;;;;;;;4.68;3.10;;;15.00;65.90;;;;;;5031879;28;20055;-72
2022/11/13 00:24:04;;;;;;;4.10;3.35;;;15.00;65.90;;;;;;5031403;28;20057;-71
2022/11/13 00:26:32;;;;;;;4.25;3.53;;;15.00;65.90;;;;;;5031171;28;20060;-72
2022/11/13 00:29:00;;;;;;;4.30;3.50;;;15.00;65.90;;;;;;5031551;28;20057;-72
2022/11/13 00:31:27;;;;;;;4.00;3.30;;;15.00;65.90;;;;;;5030618;28;20063;-72
2022/11/13 00:33:53;;;;;;;3.67;2.90;;;15.00;65.90;;;;;;5030704;28;20060;-72
2022/11/13 00:36:21;;;;;;;3.63;3.03;;;14.90;65.80;;;;;;5031115;28;20410;-72
2022/11/13 00:38:48;;;;;;;4.93;3.60;;;14.90;65.80;;;;;;5031417;28;20060;-72
2022/11/13 00:41:15;;;;;;;4.70;3.38;;;14.90;65.80;;;;;;5030639;28;20049;-72
2022/11/13 00:43:43;;;;;;;4.90;3.55;;;14.90;65.80;;;;;;5030767;28;20487;-72
2022/11/13 00:46:10;;;;;;;3.72;3.30;;;14.90;65.80;;;;;;5030859;28;20053;-72
2022/11/13 00:48:36;;;;;;;3.85;3.05;;;14.90;65.80;;;;;;5031214;28;20107;-72
2022/11/13 00:51:03;;;;;;;3.70;3.17;;;14.90;65.90;;;;;;5030474;28;20057;-72
2022/11/13 00:53:30;;;;;;;4.80;3.22;;;14.90;65.90;;;;;;5030587;28;20054;-72
2022/11/13 00:55:59;;;;;;;3.83;3.25;;;14.90;65.90;;;;;;5030457;28;20493;-72
2022/11/13 00:58:26;;;;;;;4.28;3.42;;;14.90;66.40;;;;;;5030848;28;20057;-72
2022/11/13 01:00:54;;;;;;;3.28;2.92;;;14.90;65.80;;;;;;5030333;28;20405;-72
2022/11/13 01:03:20;;;;;;;4.47;3.47;;;14.90;65.90;;;;;;5030958;28;20597;-72
2022/11/13 01:05:47;;;;;;;4.00;3.25;;;14.80;65.80;;;;;;5030672;28;20064;-72
2022/11/13 01:08:14;;;;;;;3.50;3.00;;;14.90;65.90;;;;;;5030787;28;20140;-72
2022/11/13 01:10:42;;;;;;;3.70;3.20;;;14.90;65.90;;;;;;5030124;28;20064;-72
2022/11/13 01:13:09;;;;;;;4.53;3.58;;;14.80;65.90;;;;;;5030901;28;20068;-72
2022/11/13 01:15:38;;;;;;;3.53;3.10;;;14.80;65.90;;;;;;5031871;28;20064;-72
2022/11/13 01:18:06;;;;;;;4.53;3.60;;;14.80;66.00;;;;;;5030740;28;20483;-72
2022/11/13 01:20:33;;;;;;;4.05;3.13;;;14.80;65.90;;;;;;5029993;28;20384;-72
2022/11/13 01:23:00;;;;;;;4.13;3.33;;;14.80;65.90;;;;;;5030765;28;20060;-72
2022/11/13 01:25:27;;;;;;;4.32;3.53;;;14.80;65.90;;;;;;5030468;28;20136;-71
2022/11/13 01:27:53;;;;;;;3.85;3.28;;;14.80;65.90;;;;;;5029986;28;20050;-72
2022/11/13 01:30:20;;;;;;;4.60;3.45;;;14.80;65.90;;;;;;5029962;28;20055;-72
2022/11/13 01:32:47;;;;;;;4.57;3.50;;;14.80;65.90;;;;;;5030543;28;20056;-72
2022/11/13 01:35:16;;;;;;;4.45;3.80;;;14.80;65.90;;;;;;5030689;28;20053;-72
2022/11/13 01:37:43;;;;;;;3.58;3.20;;;14.80;65.90;;;;;;5030658;28;20045;-71
2022/11/13 01:40:11;;;;;;;3.92;3.40;;;14.80;65.90;;;;;;5029842;28;20388;-72
2022/11/13 01:42:38;;;;;;;4.85;3.58;;;14.80;65.90;;;;;;5030448;28;20521;-72
2022/11/13 01:45:44;;;;;;;5.55;3.60;;;14.80;65.90;;;;;;5030304;28;20064;-71
2022/11/13 01:48:11;;;;;;;3.83;3.38;;;14.80;65.80;;;;;;5030192;28;20060;-72
2022/11/13 01:50:39;;;;;;;5.07;3.75;;;14.80;66.00;;;;;;5029802;28;20061;-73
2022/11/13 01:53:05;;;;;;;4.68;3.60;;;14.80;65.90;;;;;;5030567;28;20406;-72
2022/11/13 01:55:32;;;;;;;5.03;3.70;;;14.80;65.90;;;;;;5030309;28;20087;-72
2022/11/13 01:57:59;;;;;;;5.32;3.50;;;14.80;65.90;;;;;;5030500;28;20556;-71
2022/11/13 02:00:26;;;;;;;5.10;3.85;;;14.90;66.00;;;;;;5029857;28;20072;-72
2022/11/13 02:02:53;;;;;;;4.43;3.47;;;14.80;65.90;;;;;;5030460;28;20562;-72
2022/11/13 02:05:19;;;;;;;5.07;3.58;;;14.80;65.90;;;;;;5029791;28;20063;-72
2022/11/13 02:07:47;;;;;;;4.30;3.55;;;14.80;65.90;;;;;;5032103;28;20053;-72
2022/11/13 02:10:14;;;;;;;4.25;3.38;;;14.80;65.90;;;;;;5034571;28;21093;-72
2022/11/13 02:12:42;;;;;;;4.00;3.42;;;14.80;65.90;;;;;;5034025;28;20060;-71
2022/11/13 02:15:09;;;;;;;3.92;3.38;;;14.80;65.90;;;;;;5033645;28;20059;-72
2022/11/13 02:17:37;;;;;;;4.47;3.75;;;14.80;65.90;;;;;;5033160;28;20060;-72
2022/11/13 02:20:05;;;;;;;4.10;3.55;;;14.80;65.80;;;;;;5033165;28;20395;-72
2022/11/13 02:22:33;;;;;;;5.18;3.78;;;14.90;65.90;;;;;;5033966;28;20053;-72
2022/11/13 02:25:02;;;;;;;4.95;3.20;;;14.90;65.90;;;;;;5033742;28;20412;-72
2022/11/13 02:27:30;;;;;;;4.70;3.10;;;14.90;65.90;;;;;;5033407;28;20056;-73
2022/11/13 02:29:57;;;;;;;5.28;3.58;;;14.90;65.80;;;;;;5032921;28;20063;-72
2022/11/13 02:32:24;;;;;;;4.28;3.53;;;14.90;65.80;;;;;;5033702;28;20487;-72
2022/11/13 02:34:50;;;;;;;4.57;3.33;;;14.90;65.80;;;;;;5033291;28;20068;-72
2022/11/13 02:37:17;;;;;;;4.50;3.60;;;14.90;65.80;;;;;;5034515;28;20099;-72
2022/11/13 02:39:44;;;;;;;4.63;3.55;;;14.80;65.70;;;;;;5032977;28;20053;-72
2022/11/13 02:42:12;;;;;;;5.70;3.55;;;14.90;65.80;;;;;;5032890;28;20132;-72
2022/11/13 02:44:39;;;;;;;4.68;3.30;;;14.90;65.80;;;;;;5033478;28;20136;-72
2022/11/13 02:47:06;;;;;;;4.20;3.35;;;14.80;65.70;;;;;;5033141;28;20063;-72
2022/11/13 02:49:32;;;;;;;4.15;3.42;;;14.90;65.80;;;;;;5033272;28;20057;-71
2022/11/13 02:51:59;;;;;;;5.55;3.42;;;14.90;65.70;;;;;;5032396;28;20049;-72
2022/11/13 02:54:26;;;;;;;4.28;3.40;;;14.90;65.70;;;;;;5033029;28;20063;-71
2022/11/13 02:56:52;;;;;;;4.05;3.40;;;14.90;65.70;;;;;;5034145;28;20076;-72
2022/11/13 02:59:20;;;;;;;4.55;3.25;;;14.90;65.70;;;;;;5032826;28;20059;-72
2022/11/13 03:01:47;;;;;;;3.70;3.15;;;14.80;65.70;;;;;;5032597;28;20057;-71
2022/11/13 03:04:14;;;;;;;4.07;3.50;;;14.80;65.70;;;;;;5032875;28;20049;-72
2022/11/13 03:06:41;;;;;;;3.95;3.30;;;14.80;65.70;;;;;;5032939;28;20060;-72
2022/11/13 03:09:07;;;;;;;4.32;3.65;;;14.80;65.60;;;;;;5032342;28;20058;-72
2022/11/13 03:11:34;;;;;;;3.92;3.40;;;14.80;65.70;;;;;;5032457;28;20058;-72
2022/11/13 03:14:01;;;;;;;4.00;3.30;;;14.80;65.70;;;;;;5033923;28;20053;-72
2022/11/13 03:16:29;;;;;;;6.18;3.72;;;14.80;65.70;;;;;;5032500;28;20053;-72
2022/11/13 03:18:56;;;;;;;3.97;3.33;;;14.80;65.70;;;;;;5031891;28;20053;-71
2022/11/13 03:21:22;;;;;;;4.10;3.33;;;14.80;65.60;;;;;;5032052;28;20136;-72
2022/11/13 03:23:49;;;;;;;3.70;3.20;;;14.80;65.70;;;;;;5032625;28;20053;-72
2022/11/13 03:26:16;;;;;;;5.57;3.40;;;14.80;65.60;;;;;;5032680;28;20384;-72
2022/11/13 03:28:43;;;;;;;5.05;3.50;;;14.80;65.70;;;;;;5032223;28;20143;-72
2022/11/13 03:31:09;;;;;;;4.40;3.45;;;14.80;65.70;;;;;;5033037;28;20329;-72
2022/11/13 03:33:37;;;;;;;4.70;3.78;;;14.80;65.70;;;;;;5032027;28;20059;-72
2022/11/13 03:36:05;;;;;;;5.13;3.75;;;14.80;65.60;;;;;;5032247;28;20064;-72
2022/11/13 03:38:32;;;;;;;4.85;3.60;;;14.80;65.60;;;;;;5028509;28;20088;-72
2022/11/13 03:40:58;;;;;;;5.13;3.63;;;14.80;65.70;;;;;;5012005;28;20104;-71
2022/11/13 03:43:25;;;;;;;4.18;3.45;;;14.80;65.70;;;;;;5012443;28;20049;-71
2022/11/13 03:45:52;;;;;;;4.70;3.47;;;14.80;65.60;;;;;;5012379;28;20058;-72
2022/11/13 03:48:18;;;;;;;4.35;3.30;;;14.80;65.70;;;;;;5011933;28;20056;-72
2022/11/13 03:50:47;;;;;;;4.53;3.60;;;14.80;65.70;;;;;;5011572;28;20060;-72
2022/11/13 03:53:14;;;;;;;3.55;3.22;;;14.80;65.70;;;;;;5012315;28;20407;-71
2022/11/13 03:55:41;;;;;;;4.43;3.40;;;14.80;65.70;;;;;;5012109;28;20058;-72
2022/11/13 03:58:08;;;;;;;3.72;3.08;;;14.80;65.60;;;;;;5012335;28;20547;-72
2022/11/13 04:00:35;;;;;;;3.97;3.13;;;14.80;65.70;;;;;;5011621;28;20061;-72
2022/11/13 04:03:02;;;;;;;4.22;3.70;;;14.80;65.60;;;;;;5012229;28;20054;-72
2022/11/13 04:05:28;;;;;;;4.55;3.53;;;14.80;65.70;;;;;;5012109;28;20068;-72
2022/11/13 04:07:56;;;;;;;4.68;3.70;;;14.80;65.60;;;;;;5012027;28;20079;-72
2022/11/13 04:10:23;;;;;;;3.70;3.00;;;14.80;65.60;;;;;;5011280;28;20054;-72
2022/11/13 04:12:50;;;;;;;3.67;3.17;;;14.80;65.60;;;;;;5011950;28;20058;-72
2022/11/13 04:15:17;;;;;;;4.45;3.28;;;14.80;65.60;;;;;;5011967;28;20062;-71
2022/11/13 04:17:43;;;;;;;5.65;3.28;;;14.80;65.60;;;;;;5011999;28;20492;-72
2022/11/13 04:20:11;;;;;;;4.38;3.13;;;14.80;65.60;;;;;;5011175;28;20053;-72
2022/11/13 04:22:37;;;;;;;3.90;3.38;;;14.80;65.60;;;;;;5012296;28;20056;-72
2022/11/13 04:25:06;;;;;;;3.22;2.92;;;14.80;65.60;;;;;;5012562;28;20053;-72
2022/11/13 04:27:33;;;;;;;3.90;3.00;;;14.80;65.60;;;;;;5011759;28;20064;-72
2022/11/13 04:29:59;;;;;;;4.78;3.15;;;14.80;65.60;;;;;;5010868;28;20064;-72
2022/11/13 04:32:26;;;;;;;3.67;3.17;;;14.80;66.10;;;;;;5012058;28;20072;-72
2022/11/13 04:34:53;;;;;;;4.70;3.30;;;14.80;65.60;;;;;;5011605;28;20054;-72
2022/11/13 04:37:19;;;;;;;3.42;2.97;;;14.80;65.50;;;;;;5011535;28;20483;-72
2022/11/13 04:39:46;;;;;;;4.25;3.40;;;14.80;65.50;;;;;;5011323;28;20053;-73
2022/11/13 04:44:58;;;;;;;5.38;3.30;;;14.80;65.50;;;;;;5012499;28;20046;-73
2022/11/13 04:47:25;;;;;;;4.32;3.20;;;14.80;65.50;;;;;;5011315;28;20060;-71
2022/11/13 04:49:51;;;;;;;3.33;3.00;;;14.80;65.50;;;;;;5011411;28;20085;-71
2022/11/13 04:52:18;;;;;;;3.90;3.30;;;14.80;65.50;;;;;;5010792;28;20054;-71
2022/11/13 04:54:45;;;;;;;4.53;3.25;;;14.80;65.50;;;;;;5011271;28;20076;-72
2022/11/13 04:57:12;;;;;;;3.47;2.80;;;14.90;65.50;;;;;;5011234;28;20054;-72
2022/11/13 04:59:40;;;;;;;4.93;3.80;;;14.80;65.50;;;;;;5011079;28;20053;-72
2022/11/13 05:02:06;;;;;;;5.78;3.45;;;14.90;65.50;;;;;;5010496;28;20057;-72
2022/11/13 05:04:33;;;;;;;4.05;3.50;;;14.90;65.50;;;;;;5011043;28;20137;-71
2022/11/13 05:07:00;;;;;;;4.07;3.10;;;14.90;65.50;;;;;;5011055;28;20107;-71
2022/11/13 05:09:27;;;;;;;4.15;3.38;;;15.20;68.50;;;;;;5012160;28;20061;-72
2022/11/13 05:11:53;;;;;;;3.40;2.90;;;14.90;65.50;;;;;;5010029;28;20081;-72
2022/11/13 05:14:20;;;;;;;4.22;3.25;;;14.90;65.50;;;;;;5011116;28;20060;-71
2022/11/13 05:16:48;;;;;;;5.47;3.28;;;14.90;65.50;;;;;;5011148;28;20136;-72
2022/11/13 05:19:16;;;;;;;4.40;3.30;;;14.90;65.50;;;;;;5011118;28;20107;-71
2022/11/13 05:21:42;;;;;;;4.15;3.25;;;14.90;65.50;;;;;;5009981;28;20053;-71
2022/11/13 05:24:09;;;;;;;3.60;3.20;;;14.90;65.50;;;;;;5011063;28;20060;-71
2022/11/13 05:26:37;;;;;;;3.72;3.03;;;14.90;65.40;;;;;;5010638;28;20066;-71
2022/11/13 05:29:03;;;;;;;3.92;2.92;;;14.90;65.40;;;;;;5010780;28;20056;-73
2022/11/13 05:31:30;;;;;;;3.83;3.03;;;14.90;65.40;;;;;;5010129;28;20060;-72
2022/11/13 05:33:58;;;;;;;4.20;3.35;;;14.90;65.40;;;;;;5010969;28;20068;-72
2022/11/13 05:36:25;;;;;;;3.47;2.78;;;14.90;65.40;;;;;;5012074;28;20068;-71
2022/11/13 05:38:51;;;;;;;3.67;3.13;;;14.90;65.40;;;;;;5010772;28;20060;-71
2022/11/13 05:41:20;;;;;;;3.97;3.00;;;14.90;65.40;;;;;;5010099;28;20058;-71
2022/11/13 05:43:47;;;;;;;4.63;2.95;;;14.90;65.40;;;;;;5015596;28;20135;-71
2022/11/13 05:46:14;;;;;;;3.22;2.75;;;14.80;65.30;;;;;;5014790;28;20503;-70
2022/11/13 05:48:41;;;;;;;3.28;2.97;;;14.80;65.30;;;;;;4998143;28;20054;-71
2022/11/13 05:51:11;;;;;;;3.22;2.88;;;14.80;65.30;;;;;;5014926;28;20054;-71
2022/11/13 05:53:38;;;;;;;3.88;3.20;;;14.90;65.30;;;;;;5014612;28;20133;-71
2022/11/13 05:56:05;;;;;;;4.43;3.25;;;14.80;65.30;;;;;;5014697;28;20498;-71
2022/11/13 05:58:32;;;;;;;3.55;2.90;;;14.80;65.20;;;;;;5015734;28;20050;-71
2022/11/13 06:01:07;;;;;;;3.47;2.90;;;14.80;65.20;;;;;;5013518;28;20060;-71
2022/11/13 06:03:33;;;;;;;3.38;2.90;;;14.80;65.20;;;;;;5014185;28;20053;-71
2022/11/13 06:06:00;;;;;;;4.22;3.28;;;14.80;67.90;;;;;;5015570;28;20478;-71
2022/11/13 06:08:28;;;;;;;3.03;2.72;;;14.80;65.30;;;;;;5015082;28;20065;-71
2022/11/13 06:10:59;;;;;;;3.38;2.88;;;14.80;65.20;;;;;;5013629;28;20053;-71
2022/11/13 06:13:25;;;;;;;4.63;3.30;;;14.90;66.50;;;;;;5014238;28;20049;-71
2022/11/13 06:15:52;;;;;;;3.20;2.85;;;14.80;65.30;;;;;;5014306;28;20056;-71
2022/11/13 06:18:21;;;;;;;3.25;2.88;;;14.80;65.20;;;;;;5014218;28;20503;-70
2022/11/13 06:20:48;;;;;;;3.40;2.80;;;14.80;65.20;;;;;;5012968;28;20058;-70
2022/11/13 06:23:15;;;;;;;3.30;3.00;;;14.80;65.20;;;;;;5014094;28;20534;-71
2022/11/13 06:25:43;;;;;;;3.47;2.67;;;14.80;65.20;;;;;;5014021;28;20157;-71
2022/11/13 06:28:10;;;;;;;3.65;2.78;;;14.80;65.20;;;;;;5015128;28;20072;-71
2022/11/13 06:30:36;;;;;;;3.15;2.78;;;14.80;65.20;;;;;;5014054;28;20056;-71
2022/11/13 06:33:03;;;;;;;3.83;2.88;;;14.80;65.20;;;;;;5013914;28;20058;-71
2022/11/13 06:35:30;;;;;;;3.47;3.15;;;14.80;65.20;;;;;;5014882;28;20422;-70
2022/11/13 06:37:57;;;;;;;4.93;3.15;;;14.80;65.20;;;;;;5013944;28;20410;-71
2022/11/13 06:40:24;;;;;;;4.55;2.75;;;14.80;65.20;;;;;;5014023;28;20064;-71
2022/11/13 06:42:52;;;;;;;3.42;2.95;;;14.80;65.10;;;;;;5014833;28;20056;-71
2022/11/13 06:45:19;;;;;;;3.42;2.80;;;14.80;65.10;;;;;;5014697;28;20046;-71
2022/11/13 06:47:46;;;;;;;4.78;3.00;;;14.80;65.20;;;;;;5013655;28;20054;-71
2022/11/13 06:50:13;;;;;;;4.28;2.90;;;14.80;65.10;;;;;;5012813;28;20107;-70
2022/11/13 06:52:39;;;;;;;3.38;2.88;;;14.80;65.20;;;;;;5014570;28;20045;-71
2022/11/13 06:55:06;;;;;;;4.53;3.00;;;14.80;65.10;;;;;;5012345;28;20060;-71
2022/11/13 06:57:33;;;;;;;3.17;2.88;;;14.80;65.10;;;;;;5013556;28;20068;-71
2022/11/13 07:00:01;;;;;;;3.78;2.75;;;14.80;65.10;;;;;;5012739;28;20057;-70
2022/11/13 07:02:28;;;;;;;3.70;3.05;;;14.80;65.10;;;;;;5014372;28;20056;-71
2022/11/13 07:04:55;;;;;;;3.17;2.80;;;14.80;65.10;;;;;;5013071;28;20493;-71
2022/11/13 07:07:21;;;;;;;3.42;2.63;;;14.80;65.10;;;;;;5013363;28;20132;-70
2022/11/13 07:09:48;;;;;;;4.00;2.80;;;14.80;65.10;;;;;;5013816;28;20053;-71
2022/11/13 07:12:15;;;;;;;3.65;2.67;;;14.80;65.10;;;;;;5012706;28;20080;-70
2022/11/13 07:14:41;;;;;;;3.60;2.92;;;14.80;65.10;;;;;;5013038;28;20061;-71
2022/11/13 07:17:09;;;;;;;3.88;3.20;;;14.80;65.10;;;;;;5014113;28;20053;-71
2022/11/13 07:19:36;;;;;;;3.40;3.10;;;14.80;65.10;;;;;;5012621;28;20050;-70
2022/11/13 07:22:03;;;;;;;3.15;2.67;;;14.80;65.10;;;;;;5012580;28;20053;-71
2022/11/13 07:24:29;;;;;;;4.00;2.90;;;14.80;65.10;;;;;;5012583;28;20049;-71
2022/11/13 07:26:56;;;;;;;4.97;2.88;;;14.80;65.10;;;;;;5013793;28;20046;-71
2022/11/13 07:29:23;;;;;;;3.40;2.97;;;14.80;65.10;;;;;;5013668;28;20045;-71
2022/11/13 07:31:49;;;;;;;3.22;2.83;;;14.80;65.00;;;;;;5013192;28;20483;-71
2022/11/13 07:34:17;;;;;;;3.63;2.88;;;14.80;65.00;;;;;;5012703;28;20056;-71
2022/11/13 07:36:44;;;;;;;4.00;3.00;;;14.80;65.00;;;;;;5012633;28;20410;-71
2022/11/13 07:39:11;;;;;;;3.05;2.75;;;14.80;65.00;;;;;;5012316;28;20056;-71
2022/11/13 07:41:37;;;;;;;3.30;2.83;;;14.80;65.00;;;;;;5013090;28;20053;-71
2022/11/13 07:44:04;;;;;;;3.58;2.72;;;14.80;65.00;;;;;;5013599;28;20491;-70
2022/11/13 07:46:31;;;;;;;3.80;2.80;;;14.80;64.90;;;;;;5013556;28;20050;-71
2022/11/13 07:48:58;;;;;;;3.17;2.85;;;14.90;65.00;;;;;;5012378;28;20137;-71
2022/11/13 07:51:26;;;;;;;3.53;2.90;;;14.80;64.90;;;;;;5011893;28;20084;-71
2022/11/13 07:53:52;;;;;;;4.20;2.72;;;14.90;65.00;;;;;;5013196;28;20052;-71
2022/11/13 07:56:21;;;;;;;3.35;2.88;;;14.80;64.90;;;;;;5012339;28;20050;-71
2022/11/13 07:58:48;;;;;;;4.05;3.20;;;14.80;64.90;;;;;;5012372;28;20085;-71
2022/11/13 08:01:15;;;;;;;3.67;2.80;;;14.80;64.90;;;;;;5011552;28;20054;-71
2022/11/13 08:03:41;;;;;;;3.45;3.15;;;14.60;67.10;;;;;;5012268;28;20058;-71
2022/11/13 08:06:08;;;;;;;4.03;3.20;;;14.80;64.90;;;;;;5012100;28;20068;-71
2022/11/13 08:08:36;;;;;;;5.40;3.10;;;14.80;64.90;;;;;;5016724;28;20171;-71
2022/11/13 08:11:04;;;;;;;3.50;3.20;;;14.80;64.80;;;;;;5031356;28;20071;-71
2022/11/13 08:13:31;;;;;;;3.40;3.10;;;14.80;64.80;;;;;;5031600;28;20053;-71
2022/11/13 08:15:59;;;;;;;3.75;3.30;;;14.80;64.80;;;;;;5029498;28;20145;-72
2022/11/13 08:18:26;;;;;;;3.40;3.10;;;14.80;64.80;;;;;;5030917;28;20059;-71
2022/11/13 08:20:53;;;;;;;4.10;3.10;;;14.80;64.90;;;;;;5030841;28;20068;-71
2022/11/13 08:23:19;;;;;;;3.63;3.00;;;14.80;64.90;;;;;;5031257;28;20049;-72
2022/11/13 08:25:48;;;;;;;3.20;2.83;;;14.80;64.90;;;;;;5031349;28;20053;-71
2022/11/13 08:28:14;;;;;;;3.47;3.17;;;14.70;64.90;;;;;;5030746;28;20057;-71
2022/11/13 08:30:43;;;;;;;3.60;2.70;;;14.70;64.90;;;;;;5030714;28;20053;-72
2022/11/13 08:33:09;;;;;;;3.60;3.22;;;14.70;64.90;;;;;;5031234;28;20061;-71
2022/11/13 08:35:36;;;;;;;3.78;3.30;;;14.70;64.90;;;;;;5031205;28;20060;-72
2022/11/13 08:38:03;;;;;;;5.55;3.35;;;14.70;65.00;;;;;;5014407;28;20141;-72
2022/11/13 08:40:30;;;;;;;3.42;2.85;;;14.70;64.90;;;;;;5010918;28;20398;-72
2022/11/13 08:43:00;;;;;;;3.50;2.85;;;14.70;65.00;;;;;;5011276;28;20057;-71
2022/11/13 08:45:26;;;;;;;4.80;3.17;;;14.70;64.90;;;;;;5011439;28;20058;-71
2022/11/13 08:47:53;;;;;;;4.20;3.15;;;14.70;65.00;;;;;;5010982;28;20133;-72
2022/11/13 08:50:20;;;;;;;5.35;3.03;;;14.70;65.00;;;;;;5010787;28;20414;-71
2022/11/13 08:52:47;;;;;;;4.35;3.17;;;14.70;65.10;;;;;;5011119;28;20514;-71
2022/11/13 08:55:13;;;;;;;3.50;3.03;;;14.70;65.10;;;;;;5010939;28;20059;-72
2022/11/13 08:57:40;;;;;;;3.97;3.30;;;14.70;65.10;;;;;;5010965;28;20141;-72
2022/11/13 09:00:10;;;;;;;5.45;3.10;;;14.70;65.10;;;;;;5011447;28;20406;-71
2022/11/13 09:02:37;;;;;;;5.07;3.03;;;16.20;65.90;;;;;;5011181;28;20061;-71
2022/11/13 09:05:04;;;;;;;3.30;2.92;;;14.70;65.10;;;;;;5011074;28;20133;-71
2022/11/13 09:07:31;;;;;;;3.88;3.13;;;14.70;65.10;;;;;;5010885;28;20061;-71
2022/11/13 09:09:57;;;;;;;3.88;3.10;;;14.70;65.00;;;;;;5009381;28;20317;-71
2022/11/13 09:12:24;;;;;;;4.97;3.10;;;14.80;65.10;;;;;;5030474;28;20075;-71
2022/11/13 09:14:51;;;;;;;3.55;3.05;;;14.80;65.10;;;;;;5030647;28;20067;-71
2022/11/13 09:17:19;;;;;;;3.95;3.08;;;14.80;65.00;;;;;;5030716;28;20422;-74
2022/11/13 09:19:46;;;;;;;3.40;3.10;;;14.80;65.00;;;;;;5031577;28;20392;-71
2022/11/13 09:22:13;;;;;;;3.17;2.88;;;14.90;65.10;;;;;;5030753;28;20056;-71
2022/11/13 09:24:39;;;;;;;3.72;2.70;;;14.90;65.00;;;;;;5031720;28;20132;-71
2022/11/13 09:27:06;;;;;;;4.72;3.40;;;14.90;65.00;;;;;;5031406;28;20380;-71
2022/11/13 09:29:34;;;;;;;3.92;3.05;;;14.90;65.00;;;;;;5031409;28;20056;-71
2022/11/13 09:32:01;;;;;;;3.92;2.92;;;14.90;65.50;;;;;;5030996;28;20045;-71
2022/11/13 09:34:29;;;;;;;2.97;2.58;;;14.90;65.00;;;;;;5031458;28;20045;-71
2022/11/13 09:36:55;;;;;;;3.63;3.00;;;15.00;65.10;;;;;;5031524;28;20049;-71
2022/11/13 09:39:22;;;;;;;3.20;2.65;;;15.00;65.00;;;;;;5031591;28;20048;-71
2022/11/13 09:41:51;;;;;;;3.67;3.10;;;15.00;65.00;;;;;;5029704;28;20491;-71
2022/11/13 09:44:29;;;;;;;3.38;2.83;;;15.00;65.00;;;;;;5029878;28;20056;-71
2022/11/13 09:46:58;;;;;;;3.75;2.95;;;15.00;65.00;;;;;;5030745;28;20134;-71
2022/11/13 09:49:26;;;;;;;3.47;2.90;;;15.10;65.10;;;;;;5030269;28;20056;-71
2022/11/13 09:51:55;;;;;;;4.13;2.80;;;15.00;65.00;;;;;;5029605;28;20059;-71
2022/11/13 09:54:22;;;;;;;3.45;2.67;;;15.00;65.00;;;;;;5030186;28;20053;-71
2022/11/13 09:56:54;;;;;;;3.70;2.90;;;15.10;65.00;;;;;;5031306;28;20055;-70
2022/11/13 09:59:23;;;;;;;3.85;2.90;;;15.10;65.00;;;;;;5030435;28;20549;-70
2022/11/13 10:01:54;;;;;;;3.67;2.70;;;15.10;65.00;;;;;;5029341;28;20057;-70
2022/11/13 10:04:28;;;;;;;3.22;2.83;;;15.10;65.00;;;;;;5030024;28;20059;-70
2022/11/13 10:07:17;;;;;;;4.13;2.97;;;15.10;64.90;;;;;;5030378;28;20061;-71
2022/11/13 10:09:55;;;;;;;3.47;2.85;;;15.10;64.90;;;;;;5031478;28;20364;-71
2022/11/13 10:12:22;;;;;;;3.08;2.70;;;15.20;65.00;;;;;;5029708;28;20089;-72
2022/11/13 10:14:50;;;;;;;3.45;3.05;;;15.10;64.90;;;;;;5029959;28;20491;-71
2022/11/13 10:17:20;;;;;;;3.63;2.95;;;15.20;65.00;;;;;;5030176;28;20136;-71
2022/11/13 10:19:52;;;;;;;4.13;2.97;;;15.20;64.90;;;;;;5029515;28;20437;-71
2022/11/13 10:22:24;;;;;;;3.55;2.90;;;15.20;64.90;;;;;;5029171;28;20140;-71
2022/11/13 10:24:52;;;;;;;3.83;2.80;;;15.20;64.90;;;;;;5029727;28;20057;-71
2022/11/13 10:27:19;;;;;;;3.78;2.90;;;15.20;64.90;;;;;;5030009;28;20132;-71
2022/11/13 10:29:46;;;;;;;3.83;3.00;;;15.30;64.90;;;;;;5030633;28;20483;-71
2022/11/13 10:32:15;;;;;;;3.70;3.10;;;15.30;64.90;;;;;;5031915;28;20061;-71
2022/11/13 10:34:43;;;;;;;4.47;3.10;;;15.30;64.90;;;;;;5032335;28;20510;-72
2022/11/13 10:37:45;;;;;;;3.92;3.05;;;15.30;64.90;;;;;;5032830;28;20127;-71
2022/11/13 10:40:22;;;;;;;3.92;2.95;;;15.30;64.90;;;;;;5032177;28;20573;-71
2022/11/13 10:42:49;;;;;;;2.80;2.50;;;15.30;65.00;;;;;;5033269;28;20049;-71
2022/11/13 10:45:16;;;;;;;3.30;2.80;;;15.30;64.90;;;;;;5032518;28;20136;-71
2022/11/13 10:47:46;;;;;;;4.07;2.97;;;15.30;64.90;;;;;;5032427;28;20494;-71
2022/11/13 10:50:19;;;;;;;3.90;2.88;;;15.40;64.90;;;;;;5031839;28;20053;-71
2022/11/13 10:52:48;;;;;;;3.53;2.78;;;15.40;64.90;;;;;;5031636;28;20057;-71
2022/11/13 10:55:22;;;;;;;3.10;2.60;;;15.40;64.90;;;;;;5033363;28;20049;-72
2022/11/13 10:57:54;;;;;;;4.55;2.72;;;15.40;64.80;;;;;;5033134;28;20056;-72
2022/11/13 11:00:24;;;;;;;3.15;2.55;;;15.40;64.80;;;;;;5017514;28;20060;-72
2022/11/13 11:02:51;;;;;;;4.43;2.70;;;15.40;64.80;;;;;;5011360;28;20064;-72
2022/11/13 11:05:18;;;;;;;3.35;2.85;;;15.50;64.80;;;;;;5011377;28;20058;-72
2022/11/13 11:07:47;;;;;;;3.22;2.80;;;15.50;64.80;;;;;;5012049;28;20060;-71
2022/11/13 11:10:22;;;;;;;3.40;2.90;;;15.50;64.80;;;;;;5009854;28;20054;-71
2022/11/13 11:12:52;;;;;;;3.95;2.90;;;15.50;64.80;;;;;;5011842;28;20084;-71
2022/11/13 11:15:22;;;;;;;3.40;2.80;;;15.50;64.80;;;;;;5011826;28;20410;-71
2022/11/13 11:17:50;;;;;;;3.50;2.95;;;14.60;67.00;;;;;;5015742;28;20145;-71
2022/11/13 11:20:23;;;;;;;3.00;2.70;;;15.50;64.70;;;;;;5011690;28;20068;-71
2022/11/13 11:22:52;;;;;;;3.90;3.10;;;15.60;64.70;;;;;;5012008;28;20050;-71
2022/11/13 11:25:24;;;;;;;3.33;2.95;;;15.50;64.70;;;;;;5010754;28;20054;-71
2022/11/13 11:27:54;;;;;;;3.05;2.53;;;15.60;64.70;;;;;;5012455;28;20410;-72
2022/11/13 11:30:21;;;;;;;3.67;2.97;;;15.50;64.70;;;;;;5013089;28;20060;-71
2022/11/13 11:32:52;;;;;;;3.72;2.92;;;15.50;64.70;;;;;;5012284;28;20423;-71
2022/11/13 11:35:20;;;;;;;3.92;2.60;;;15.50;64.70;;;;;;5013438;28;20056;-71
2022/11/13 11:37:51;;;;;;;3.72;2.70;;;15.50;64.80;;;;;;5013447;28;20050;-71
2022/11/13 11:40:21;;;;;;;3.63;2.80;;;15.50;64.70;;;;;;5011249;28;20096;-71
2022/11/13 11:42:51;;;;;;;3.58;2.67;;;15.50;64.80;;;;;;5012640;28;20058;-70
2022/11/13 11:45:23;;;;;;;3.25;2.63;;;15.50;64.80;;;;;;5013213;28;20111;-70
2022/11/13 11:47:50;;;;;;;4.28;2.95;;;15.50;64.80;;;;;;5012525;28;20061;-70
2022/11/13 11:50:18;;;;;;;4.35;2.70;;;15.50;64.80;;;;;;5012086;28;20053;-70
2022/11/13 11:52:55;;;;;;;3.33;2.90;;;15.40;64.80;;;;;;5023085;28;20042;-70
2022/11/13 11:55:46;;;;;;;3.60;2.67;;;15.40;64.80;;;;;;5022548;28;20050;-70
2022/11/13 11:58:19;;;;;;;3.50;2.78;;;15.40;64.80;;;;;;5020852;28;20053;-70
2022/11/13 12:00:48;;;;;;;3.40;2.70;;;15.40;64.90;;;;;;5021195;28;20041;-70
2022/11/13 12:03:43;;;;;;;2.90;2.60;;;15.40;64.90;;;;;;5018116;28;20054;-70
2022/11/13 12:06:14;;;;;;;3.03;2.72;;;15.40;64.80;;;;;;5022325;28;20053;-70
2022/11/13 12:08:47;;;;;;;3.72;2.90;;;14.10;64.20;;;;;;5020147;28;20087;-70
2022/11/13 12:11:16;;;;;;;3.90;3.00;;;15.30;64.90;;;;;;5019695;28;20064;-70
2022/11/13 12:13:46;;;;;;;3.40;2.78;;;15.30;64.90;;;;;;5023500;28;20050;-70
2022/11/13 12:16:15;;;;;;;3.65;2.80;;;15.30;64.90;;;;;;5021060;28;20057;-70
2022/11/13 12:18:48;;;;;;;3.00;2.60;;;15.30;64.90;;;;;;5024866;28;20049;-70
2022/11/13 12:21:23;;;;;;;3.42;2.70;;;15.20;64.90;;;;;;5037752;28;20638;-70
2022/11/13 12:24:31;;;;;;;3.27;2.60;;;15.30;65.00;;;;;;5021617;28;20431;-70
2022/11/13 12:27:10;;;;;;;3.90;3.00;;;15.20;64.90;;;;;;4983283;28;20144;-70
2022/11/13 12:29:41;;;;;;;2.95;2.55;;;15.20;65.00;;;;;;5011548;28;20049;-72
2022/11/13 12:32:14;;;;;;;3.15;2.70;;;15.20;65.00;;;;;;5010718;28;20053;-70
2022/11/13 12:34:43;;;;;;;3.60;2.95;;;15.20;65.00;;;;;;5012390;28;20054;-70
2022/11/13 12:37:11;;;;;;;3.03;2.72;;;15.20;65.00;;;;;;5011165;28;20068;-70
2022/11/13 12:39:42;;;;;;;3.58;3.10;;;15.20;65.00;;;;;;5011617;28;20050;-70
2022/11/13 12:42:17;;;;;;;3.72;3.20;;;15.20;65.00;;;;;;5010981;28;20058;-70
2022/11/13 12:44:49;;;;;;;4.15;2.78;;;15.10;65.00;;;;;;5011930;28;20311;-70
2022/11/13 12:47:15;;;;;;;3.83;3.00;;;15.10;65.50;;;;;;5011383;28;20190;-69
2022/11/13 12:49:42;;;;;;;3.05;2.65;;;15.20;65.10;;;;;;5011166;28;20050;-69
2022/11/13 12:52:17;;;;;;;3.20;2.60;;;15.20;65.10;;;;;;5009680;28;20061;-70
2022/11/13 12:54:44;;;;;;;3.90;3.00;;;15.20;65.10;;;;;;5011051;28;20477;-70
2022/11/13 12:57:21;;;;;;;3.35;2.75;;;15.20;65.20;;;;;;5011346;28;20111;-70